Time;durP1;ratioP1;P1;durP2;ratioP2;P2;SDS_P1;SDS_P2;PMS_P1;PMS_P2;Temp;Humidity;BMP_temperature;BMP_pressure;BME280_temperature;BME280_humidity;BME280_pressure;Samples;Min_cycle;Max_cycle;Signal;HPM_P1;HPM_P2
2022/06/19 08:27:37;;;;;;;9.00;8.30;;;;;;;;;;6203800;23;20032;-88
2022/06/19 08:30:06;;;;;;;9.40;8.52;;;;;;;;;;6215528;23;20016;-88
2022/06/19 08:32:31;;;;;;;9.20;8.27;;;;;;;;;;6216615;23;20035;-87
2022/06/19 08:34:57;;;;;;;9.48;8.57;;;;;;;;;;6217394;23;20436;-85
2022/06/19 08:37:22;;;;;;;9.45;8.50;;;;;;;;;;6189924;23;20017;-84
2022/06/19 08:39:48;;;;;;;9.93;8.38;;;;;;;;;;6216137;23;20434;-86
2022/06/19 08:42:33;;;;;;;9.88;8.88;;;;;;;;;;6216055;23;20005;-85
2022/06/19 08:45:08;;;;;;;9.52;8.50;;;;;;;;;;6188572;23;20495;-86
2022/06/19 08:47:48;;;;;;;10.38;9.50;;;;;;;;;;6217785;23;20005;-85
2022/06/19 08:50:20;;;;;;;8.77;8.05;;;;;;;;;;6217771;23;20420;-81
2022/06/19 08:53:13;;;;;;;8.30;7.55;;;;;;;;;;6217771;23;20375;-84
2022/06/19 08:56:09;;;;;;;9.15;6.85;;;;;;;;;;6217622;23;20018;-83
2022/06/19 08:58:48;;;;;;;8.23;7.40;;;;;;;;;;6217853;23;20415;-87
2022/06/19 09:01:33;;;;;;;8.70;7.82;;;;;;;;;;6217857;23;20089;-87
2022/06/19 09:07:12;;;;;;;9.02;6.68;;;;;;;;;;6217875;23;20038;-85
2022/06/19 09:10:05;;;;;;;8.02;7.32;;;;;;;;;;6217487;23;20009;-83
2022/06/19 09:12:36;;;;;;;8.60;7.70;;;;;;;;;;6217537;23;20005;-83
2022/06/19 09:15:15;;;;;;;7.85;7.07;;;;;;;;;;6217289;23;20424;-83
2022/06/19 09:18:01;;;;;;;6.88;6.30;;;;;;;;;;6192992;23;20001;-87
2022/06/19 09:21:08;;;;;;;6.95;6.25;;;;;;;;;;6218540;23;20063;-84
2022/06/19 09:23:55;;;;;;;6.25;5.70;;;;;;;;;;6219659;23;20001;-87
2022/06/19 09:26:27;;;;;;;7.40;5.82;;;;;;;;;;6220496;23;20012;-87
2022/06/19 09:29:17;;;;;;;6.90;5.47;;;;;;;;;;6217291;23;20011;-86
2022/06/19 09:31:53;;;;;;;7.18;6.07;;;;;;;;;;6216214;23;20400;-87
2022/06/19 09:34:46;;;;;;;5.28;4.75;;;;;;;;;;6217295;23;20009;-87
2022/06/19 09:37:24;;;;;;;5.45;4.90;;;;;;;;;;6217525;23;20005;-88
2022/06/19 09:40:01;;;;;;;5.68;5.15;;;;;;;;;;6190866;23;20005;-89
2022/06/19 09:42:30;;;;;;;5.30;4.60;;;;;;;;;;6190673;23;20431;-89
2022/06/19 09:45:04;;;;;;;6.30;4.47;;;;;;;;;;6191149;23;19996;-91
2022/06/19 09:47:49;;;;;;;5.43;5.03;;;;;;;;;;6191157;23;20005;-91
2022/06/19 09:50:29;;;;;;;4.93;4.50;;;;;;;;;;6217672;23;20079;-88
2022/06/19 09:53:40;;;;;;;6.15;4.00;;;;;;;;;;6190598;23;20032;-86
2022/06/19 09:56:22;;;;;;;3.95;3.47;;;;;;;;;;6125427;23;20081;-87
2022/06/19 09:58:54;;;;;;;4.30;3.90;;;;;;;;;;6213868;23;20083;-91
2022/06/19 10:01:23;;;;;;;6.05;4.32;;;;;;;;;;6190538;23;20087;-86
2022/06/19 10:04:03;;;;;;;7.93;5.10;;;;;;;;;;6217135;23;20011;-87
2022/06/19 10:06:38;;;;;;;4.10;3.70;;;;;;;;;;6217097;23;20059;-88
2022/06/19 10:09:22;;;;;;;5.05;3.38;;;;;;;;;;6217065;23;20007;-85
2022/06/19 10:11:51;;;;;;;3.28;2.97;;;;;;;;;;6217020;23;20001;-85
2022/06/19 10:14:38;;;;;;;3.40;3.10;;;;;;;;;;6217779;23;20416;-86
2022/06/19 10:17:25;;;;;;;3.22;2.95;;;;;;;;;;6216975;23;20005;-85
2022/06/19 10:19:57;;;;;;;3.75;2.70;;;;;;;;;;6216091;23;20076;-85
2022/06/19 10:22:52;;;;;;;4.30;2.35;;;;;;;;;;6216857;23;20001;-85
2022/06/19 10:25:52;;;;;;;3.13;2.20;;;;;;;;;;6217093;23;20016;-86
2022/06/19 10:28:29;;;;;;;4.32;2.45;;;;;;;;;;6216965;23;20514;-86
2022/06/19 10:31:22;;;;;;;2.95;2.75;;;;;;;;;;6216543;23;20075;-86
2022/06/19 10:34:06;;;;;;;2.75;2.55;;;;;;;;;;6191114;23;20074;-85
2022/06/19 10:36:34;;;;;;;3.10;2.80;;;;;;;;;;6218110;23;20008;-85
2022/06/19 10:39:12;;;;;;;2.95;2.60;;;;;;;;;;6216826;23;20001;-87
2022/06/19 10:42:01;;;;;;;3.17;2.88;;;;;;;;;;6216628;23;20007;-88
2022/06/19 10:44:42;;;;;;;2.88;2.30;;;;;;;;;;6217258;23;20062;-88
2022/06/19 10:47:23;;;;;;;2.85;2.65;;;;;;;;;;6216824;23;20008;-88
2022/06/19 10:50:23;;;;;;;2.75;2.55;;;;;;;;;;6216775;23;20005;-87
2022/06/19 10:53:16;;;;;;;2.67;2.42;;;;;;;;;;6151708;23;20005;-89
2022/06/19 10:56:00;;;;;;;3.63;2.40;;;;;;;;;;6216685;23;20378;-86
2022/06/19 10:58:29;;;;;;;4.57;2.35;;;;;;;;;;6216491;23;20013;-88
2022/06/19 11:00:58;;;;;;;3.38;2.28;;;;;;;;;;6216439;23;20031;-88
2022/06/19 11:04:07;;;;;;;3.83;2.65;;;;;;;;;;6216760;23;20375;-87
2022/06/19 11:06:55;;;;;;;3.90;2.88;;;;;;;;;;6100128;23;20369;-84
2022/06/19 11:09:29;;;;;;;2.88;2.67;;;;;;;;;;6124572;23;20010;-85
2022/06/19 11:12:14;;;;;;;7.28;2.53;;;;;;;;;;6124714;23;20006;-86
2022/06/19 11:14:54;;;;;;;2.30;2.20;;;;;;;;;;6124660;23;20013;-87
2022/06/19 11:17:42;;;;;;;2.85;2.10;;;;;;;;;;6124936;23;20010;-87
2022/06/19 11:20:16;;;;;;;2.90;2.70;;;;;;;;;;6124328;23;20018;-85
2022/06/19 11:22:42;;;;;;;3.53;2.30;;;;;;;;;;6124441;23;20364;-85
2022/06/19 11:25:30;;;;;;;3.20;2.30;;;;;;;;;;6124389;23;20012;-85
2022/06/19 11:28:01;;;;;;;2.88;2.42;;;;;;;;;;6124320;23;20093;-85
2022/06/19 11:30:32;;;;;;;2.90;2.70;;;;;;;;;;6124546;23;20032;-85
2022/06/19 11:32:58;;;;;;;3.75;2.90;;;;;;;;;;6124588;23;20077;-84
2022/06/19 11:35:24;;;;;;;3.80;2.50;;;;;;;;;;6124427;23;20009;-85
2022/06/19 11:37:55;;;;;;;3.30;2.85;;;;;;;;;;6172075;23;20080;-85
2022/06/19 11:40:34;;;;;;;3.35;3.05;;;;;;;;;;6186406;23;20012;-85
2022/06/19 11:43:01;;;;;;;3.10;2.80;;;;;;;;;;6184509;23;20322;-85
2022/06/19 11:45:34;;;;;;;2.65;2.45;;;;;;;;;;6186121;23;20005;-85
2022/06/19 11:48:12;;;;;;;3.90;2.50;;;;;;;;;;6186052;23;20005;-85
2022/06/19 11:50:48;;;;;;;4.35;2.72;;;;;;;;;;6209586;23;20001;-85
2022/06/19 11:53:19;;;;;;;3.80;3.03;;;;;;;;;;6186053;23;19997;-85
2022/06/19 11:55:51;;;;;;;2.25;2.05;;;;;;;;;;6185931;23;20013;-85
2022/06/19 11:58:26;;;;;;;4.00;2.15;;;;;;;;;;6186177;23;20005;-85
2022/06/19 12:01:10;;;;;;;3.47;2.50;;;;;;;;;;6186004;23;20012;-85
2022/06/19 12:04:00;;;;;;;3.08;2.42;;;;;;;;;;6184526;23;20009;-85
2022/06/19 12:06:40;;;;;;;3.50;2.53;;;;;;;;;;6186015;23;20031;-85
2022/06/19 12:09:07;;;;;;;3.55;2.40;;;;;;;;;;6185925;23;20009;-85
2022/06/19 12:11:58;;;;;;;2.97;2.05;;;;;;;;;;6186381;23;20432;-86
2022/06/19 12:14:32;;;;;;;4.13;2.20;;;;;;;;;;6177129;23;20040;-85
2022/06/19 12:17:18;;;;;;;3.60;2.03;;;;;;;;;;6186148;23;20015;-86
2022/06/19 12:20:10;;;;;;;5.63;2.78;;;;;;;;;;6185800;23;20064;-87
2022/06/19 12:22:49;;;;;;;3.95;1.95;;;;;;;;;;6184831;23;20013;-86
2022/06/19 12:25:33;;;;;;;3.50;2.60;;;;;;;;;;6187899;23;20336;-85
2022/06/19 12:28:15;;;;;;;3.53;2.72;;;;;;;;;;6215173;23;20321;-85
2022/06/19 12:30:50;;;;;;;2.88;2.35;;;;;;;;;;6217993;23;20005;-87
2022/06/19 12:33:52;;;;;;;3.45;2.00;;;;;;;;;;6217690;23;20004;-85
2022/06/19 12:36:21;;;;;;;3.90;2.05;;;;;;;;;;6189748;23;20431;-86
2022/06/19 12:38:48;;;;;;;6.47;2.83;;;;;;;;;;6217973;23;20015;-85
2022/06/19 12:41:19;;;;;;;2.72;2.47;;;;;;;;;;6191158;23;20009;-85
2022/06/19 12:43:59;;;;;;;4.22;2.65;;;;;;;;;;6217726;23;20004;-86
2022/06/19 12:47:06;;;;;;;3.13;2.85;;;;;;;;;;6217908;23;20007;-86
2022/06/19 12:49:50;;;;;;;6.78;2.92;;;;;;;;;;6217115;23;20015;-86
2022/06/19 12:52:27;;;;;;;5.53;2.58;;;;;;;;;;6217911;23;20001;-87
2022/06/19 12:54:58;;;;;;;2.72;2.38;;;;;;;;;;6217784;23;20327;-86
2022/06/19 12:57:34;;;;;;;3.47;2.25;;;;;;;;;;6217789;23;20423;-86
2022/06/19 13:00:07;;;;;;;5.90;2.78;;;;;;;;;;6217501;23;20318;-88
2022/06/19 13:02:54;;;;;;;3.92;2.33;;;;;;;;;;6217793;23;20007;-86
2022/06/19 13:05:45;;;;;;;2.22;2.05;;;;;;;;;;6190837;23;20039;-86
2022/06/19 13:08:26;;;;;;;5.35;2.67;;;;;;;;;;6217551;23;20008;-86
2022/06/19 13:11:03;;;;;;;4.30;2.55;;;;;;;;;;6217743;23;20011;-89
2022/06/19 13:14:14;;;;;;;3.38;2.45;;;;;;;;;;6217539;23;20070;-86
2022/06/19 13:16:56;;;;;;;9.27;3.25;;;;;;;;;;6171527;23;20009;-87
2022/06/19 13:19:40;;;;;;;5.07;2.85;;;;;;;;;;6217505;23;20058;-84
2022/06/19 13:22:14;;;;;;;3.15;2.50;;;;;;;;;;6217347;23;20009;-85
2022/06/19 13:24:50;;;;;;;3.13;2.78;;;;;;;;;;6217462;23;20328;-89
2022/06/19 13:27:50;;;;;;;4.45;2.95;;;;;;;;;;6217158;23;20044;-87
2022/06/19 13:30:18;;;;;;;5.32;2.67;;;;;;;;;;6217445;23;20083;-87
2022/06/19 13:33:14;;;;;;;5.85;3.10;;;;;;;;;;6216765;23;20019;-85
2022/06/19 13:35:52;;;;;;;3.92;3.22;;;;;;;;;;6217425;23;20027;-85
2022/06/19 13:38:23;;;;;;;4.70;2.50;;;;;;;;;;6217331;23;20053;-83
2022/06/19 13:41:00;;;;;;;8.80;3.10;;;;;;;;;;6217468;23;20028;-88
2022/06/19 13:43:43;;;;;;;4.60;2.80;;;;;;;;;;6190840;23;20463;-87
2022/06/19 13:46:26;;;;;;;4.55;2.60;;;;;;;;;;6217278;23;20047;-87
2022/06/19 13:49:30;;;;;;;5.88;2.47;;;;;;;;;;6217419;23;20024;-86
2022/06/19 13:52:16;;;;;;;3.90;2.42;;;;;;;;;;6125975;23;20008;-86
2022/06/19 13:55:11;;;;;;;6.55;2.58;;;;;;;;;;6217000;23;20420;-86
2022/06/19 13:58:03;;;;;;;3.25;2.70;;;;;;;;;;6190441;23;20001;-88
2022/06/19 14:00:40;;;;;;;4.25;2.30;;;;;;;;;;6217136;23;20001;-88
2022/06/19 14:03:08;;;;;;;4.47;2.40;;;;;;;;;;6217205;23;20001;-88
2022/06/19 14:05:37;;;;;;;5.60;2.90;;;;;;;;;;6190624;23;20001;-84
2022/06/19 14:08:12;;;;;;;3.83;2.35;;;;;;;;;;6217123;23;20301;-81
2022/06/19 14:10:43;;;;;;;4.00;2.83;;;;;;;;;;6217218;23;20028;-84
2022/06/19 14:13:36;;;;;;;4.32;2.78;;;;;;;;;;6219097;23;20005;-94
2022/06/19 14:16:31;;;;;;;4.68;2.47;;;;;;;;;;6192662;23;20001;-86
2022/06/19 14:19:15;;;;;;;6.82;2.72;;;;;;;;;;6217864;23;20020;-91
2022/06/19 14:21:46;;;;;;;5.75;2.50;;;;;;;;;;6222733;23;20005;-95
2022/06/19 14:24:32;;;;;;;5.25;2.20;;;;;;;;;;6216851;23;20091;-86
2022/06/19 14:27:21;;;;;;;3.05;2.35;;;;;;;;;;6190144;23;20025;-88
2022/06/19 14:29:54;;;;;;;4.13;2.20;;;;;;;;;;6216908;23;20335;-87
2022/06/19 14:32:25;;;;;;;5.70;2.17;;;;;;;;;;6217126;23;20075;-82
2022/06/19 14:35:01;;;;;;;5.10;3.10;;;;;;;;;;6216894;23;20083;-90
2022/06/19 14:37:27;;;;;;;6.45;2.60;;;;;;;;;;6216812;23;20485;-87
2022/06/19 14:40:02;;;;;;;3.70;2.47;;;;;;;;;;6216629;23;20039;-86
2022/06/19 14:42:28;;;;;;;5.43;2.58;;;;;;;;;;6190041;23;20087;-87
2022/06/19 14:45:02;;;;;;;7.20;2.80;;;;;;;;;;6216438;23;20419;-87
2022/06/19 14:47:36;;;;;;;3.03;2.28;;;;;;;;;;6216602;23;20491;-87
2022/06/19 14:50:23;;;;;;;5.82;2.90;;;;;;;;;;6216733;23;20179;-88
2022/06/19 14:52:59;;;;;;;3.72;2.20;;;;;;;;;;6217063;23;20027;-85
2022/06/19 14:55:49;;;;;;;5.88;2.70;;;;;;;;;;6216717;23;20001;-87
2022/06/19 14:58:20;;;;;;;4.30;2.58;;;;;;;;;;6216834;23;20392;-86
2022/06/19 15:00:59;;;;;;;6.50;2.75;;;;;;;;;;6216521;23;20013;-82
2022/06/19 15:03:37;;;;;;;5.82;2.67;;;;;;;;;;6216825;23;20043;-87
2022/06/19 15:06:16;;;;;;;2.90;2.60;;;;;;;;;;6215862;23;20000;-90
2022/06/19 15:08:47;;;;;;;7.13;2.80;;;;;;;;;;6218099;23;20250;-89
2022/06/19 15:11:29;;;;;;;7.88;2.83;;;;;;;;;;6193187;23;20005;-93
2022/06/19 15:14:07;;;;;;;6.53;2.67;;;;;;;;;;6217125;23;20016;-84
2022/06/19 15:16:43;;;;;;;3.70;2.33;;;;;;;;;;6216356;23;20024;-87
2022/06/19 15:19:34;;;;;;;3.83;2.42;;;;;;;;;;6218837;23;20004;-83
2022/06/19 15:22:03;;;;;;;7.28;2.83;;;;;;;;;;6205886;23;20088;-84
2022/06/19 15:24:47;;;;;;;6.03;2.50;;;;;;;;;;6216206;23;20005;-88
2022/06/19 15:27:15;;;;;;;6.00;2.83;;;;;;;;;;6216248;23;20428;-84
2022/06/19 15:29:40;;;;;;;6.60;2.80;;;;;;;;;;6217164;23;20005;-88
2022/06/19 15:32:21;;;;;;;3.15;2.50;;;;;;;;;;6189960;23;20506;-90
2022/06/19 15:35:28;;;;;;;5.07;2.38;;;;;;;;;;6216343;23;20059;-86
2022/06/19 15:38:15;;;;;;;6.93;2.50;;;;;;;;;;6216860;23;20424;-89
2022/06/19 15:40:44;;;;;;;7.90;2.75;;;;;;;;;;6216628;23;20012;-84
2022/06/19 15:43:15;;;;;;;4.22;2.53;;;;;;;;;;6216381;23;20320;-87
2022/06/19 15:46:00;;;;;;;4.53;2.40;;;;;;;;;;6216320;23;20000;-87
2022/06/19 15:48:28;;;;;;;2.88;2.30;;;;;;;;;;6216228;23;20520;-84
2022/06/19 15:50:53;;;;;;;2.75;2.55;;;;;;;;;;6216069;23;20001;-85
2022/06/19 17:54:37;;;;;;;5.22;3.55;;;;;;;;;;6184503;23;20321;-88
2022/06/19 17:57:04;;;;;;;5.13;3.50;;;;;;;;;;6186457;23;20032;-88
2022/06/19 17:59:37;;;;;;;2.75;2.55;;;;;;;;;;6188236;23;20003;-83
2022/06/19 18:02:17;;;;;;;3.72;3.05;;;;;;;;;;6187294;23;20336;-84
2022/06/19 18:05:01;;;;;;;8.32;5.00;;;;;;;;;;6186883;23;20005;-87
2022/06/19 18:07:34;;;;;;;6.18;4.85;;;;;;;;;;6187059;23;20040;-83
2022/06/19 18:10:02;;;;;;;4.80;3.80;;;;;;;;;;6190543;23;20001;-88
2022/06/19 18:12:35;;;;;;;3.50;2.90;;;;;;;;;;6190813;23;20005;-81
2022/06/19 18:15:01;;;;;;;3.40;2.95;;;;;;;;;;6189806;23;20332;-87
2022/06/19 18:20:16;;;;;;;6.53;2.97;;;;;;;;;;6188956;23;20119;-89
2022/06/19 18:22:43;;;;;;;3.67;2.88;;;;;;;;;;6190068;23;20001;-84
2022/06/19 18:25:09;;;;;;;5.57;3.30;;;;;;;;;;6187834;23;20036;-82
2022/06/19 18:27:35;;;;;;;6.15;3.25;;;;;;;;;;6188063;23;20001;-92
2022/06/19 18:30:11;;;;;;;4.18;2.80;;;;;;;;;;6194237;23;20016;-89
2022/06/19 18:32:37;;;;;;;3.25;2.95;;;;;;;;;;6187544;23;19998;-87
2022/06/19 18:35:11;;;;;;;3.53;2.97;;;;;;;;;;6186822;23;20324;-86
2022/06/19 18:37:37;;;;;;;4.80;2.70;;;;;;;;;;6186676;23;20088;-85
2022/06/19 18:40:06;;;;;;;4.88;2.90;;;;;;;;;;6190265;23;20009;-82
2022/06/19 18:42:33;;;;;;;3.92;3.00;;;;;;;;;;6190760;23;20021;-82
2022/06/19 18:45:02;;;;;;;3.13;2.70;;;;;;;;;;6187071;23;20029;-83
2022/06/19 18:47:29;;;;;;;6.28;3.30;;;;;;;;;;6188027;23;20005;-83
2022/06/19 18:49:55;;;;;;;5.60;3.42;;;;;;;;;;6190467;23;19997;-82
2022/06/19 18:52:26;;;;;;;5.22;3.15;;;;;;;;;;6194283;23;20007;-87
2022/06/19 18:54:53;;;;;;;3.88;3.40;;;;;;;;;;6216019;23;20063;-87
2022/06/19 18:57:20;;;;;;;5.95;3.00;;;;;;;;;;6221278;23;20444;-83
2022/06/19 18:59:48;;;;;;;5.25;3.25;;;;;;;;;;6220441;23;20439;-86
2022/06/19 19:02:14;;;;;;;3.58;2.78;;;;;;;;;;6193646;23;20054;-81
2022/06/19 19:04:40;;;;;;;4.00;3.10;;;;;;;;;;6218587;23;20005;-88
2022/06/19 19:07:10;;;;;;;4.75;3.28;;;;;;;;;;6221491;23;20004;-86
2022/06/19 19:09:49;;;;;;;4.50;3.33;;;;;;;;;;6221699;23;20011;-85
2022/06/19 19:12:19;;;;;;;3.60;3.10;;;;;;;;;;6220206;23;20005;-88
2022/06/19 19:14:45;;;;;;;7.97;3.15;;;;;;;;;;6220296;23;20005;-84
2022/06/19 19:17:12;;;;;;;8.35;3.50;;;;;;;;;;6221024;23;20408;-87
2022/06/19 19:19:38;;;;;;;4.22;3.45;;;;;;;;;;6218680;23;20009;-86
2022/06/19 19:22:36;;;;;;;5.95;3.70;;;;;;;;;;6218348;23;20000;-86
2022/06/19 19:25:02;;;;;;;5.35;3.35;;;;;;;;;;6217812;23;20011;-89
2022/06/19 19:27:31;;;;;;;7.30;3.70;;;;;;;;;;6217054;23;20428;-86
2022/06/19 19:30:00;;;;;;;4.77;3.37;;;;;;;;;;6190136;23;20011;-86
2022/06/19 19:32:26;;;;;;;5.57;3.00;;;;;;;;;;6217051;23;20083;-83
2022/06/19 19:34:53;;;;;;;5.32;3.22;;;;;;;;;;6217295;23;20070;-83
2022/06/19 19:37:19;;;;;;;4.20;3.38;;;;;;;;;;6216726;23;20004;-84
2022/06/19 19:39:45;;;;;;;4.85;3.08;;;;;;;;;;6216281;23;20035;-83
2022/06/19 19:42:12;;;;;;;4.45;3.60;;;;;;;;;;6216896;23;20008;-81
2022/06/19 19:44:38;;;;;;;6.82;3.55;;;;;;;;;;6216579;23;20050;-85
2022/06/19 19:47:04;;;;;;;5.63;3.75;;;;;;;;;;6216794;23;20004;-87
2022/06/19 19:49:32;;;;;;;6.53;3.53;;;;;;;;;;6217266;23;20012;-86
2022/06/19 19:52:01;;;;;;;4.15;3.17;;;;;;;;;;6216259;23;20076;-87
2022/06/19 19:54:31;;;;;;;3.95;3.55;;;;;;;;;;6215217;23;20042;-86
2022/06/19 19:56:58;;;;;;;5.70;3.47;;;;;;;;;;6216211;23;20383;-87
2022/06/19 19:59:25;;;;;;;4.32;3.50;;;;;;;;;;6215717;23;20043;-87
2022/06/19 20:01:50;;;;;;;5.90;3.28;;;;;;;;;;6216018;23;20005;-85
2022/06/19 20:04:16;;;;;;;6.05;3.50;;;;;;;;;;6216241;23;20004;-86
2022/06/19 20:12:14;;;;;;;4.22;2.97;;;;;;;;;;6216161;23;20059;-85
2022/06/19 20:14:41;;;;;;;5.75;3.45;;;;;;;;;;6216247;23;20424;-88
2022/06/19 20:17:07;;;;;;;4.35;3.08;;;;;;;;;;6216120;23;20012;-88
2022/06/19 20:19:32;;;;;;;5.82;4.35;;;;;;;;;;6164607;23;20036;-87
2022/06/19 20:22:08;;;;;;;6.07;3.55;;;;;;;;;;6215913;23;20020;-87
2022/06/19 20:24:40;;;;;;;5.07;3.40;;;;;;;;;;6216117;23;20000;-88
2022/06/19 20:27:12;;;;;;;5.82;3.45;;;;;;;;;;6189484;23;20038;-87
2022/06/19 20:29:47;;;;;;;5.55;3.70;;;;;;;;;;6189431;23;20393;-87
2022/06/19 20:32:15;;;;;;;4.80;3.30;;;;;;;;;;6189823;23;20416;-89
2022/06/19 20:34:42;;;;;;;5.13;3.33;;;;;;;;;;6215982;23;20001;-87
2022/06/19 20:37:10;;;;;;;7.13;3.53;;;;;;;;;;6215955;23;19993;-87
2022/06/19 20:39:36;;;;;;;5.82;3.78;;;;;;;;;;6215934;23;20009;-87
2022/06/19 20:42:24;;;;;;;7.07;3.42;;;;;;;;;;6216672;23;20489;-87
2022/06/19 20:44:51;;;;;;;6.47;3.95;;;;;;;;;;6194189;23;20079;-87
2022/06/19 20:47:37;;;;;;;4.88;3.60;;;;;;;;;;6217889;23;20423;-87
2022/06/19 20:50:19;;;;;;;5.50;3.30;;;;;;;;;;6217588;23;20005;-87
2022/06/19 20:52:45;;;;;;;4.40;3.63;;;;;;;;;;6218498;23;20564;-88
2022/06/19 20:55:32;;;;;;;6.40;3.85;;;;;;;;;;6218507;23;20009;-89
2022/06/19 20:57:57;;;;;;;5.88;3.60;;;;;;;;;;6191618;23;20424;-88
2022/06/19 21:00:25;;;;;;;5.25;3.15;;;;;;;;;;6218014;23;20023;-88
2022/06/19 21:02:52;;;;;;;5.90;3.80;;;;;;;;;;6217611;23;20008;-88
2022/06/19 21:05:21;;;;;;;4.40;3.00;;;;;;;;;;6218045;23;20004;-87
2022/06/19 21:07:49;;;;;;;4.25;3.47;;;;;;;;;;6217596;23;20029;-87
2022/06/19 21:10:22;;;;;;;7.28;3.65;;;;;;;;;;6217714;23;20001;-88
2022/06/19 21:12:47;;;;;;;6.60;3.33;;;;;;;;;;6190842;23;20502;-87
2022/06/19 21:15:16;;;;;;;5.03;3.60;;;;;;;;;;6217940;23;20035;-89
2022/06/19 21:17:41;;;;;;;5.03;3.33;;;;;;;;;;6191007;23;20001;-87
2022/06/19 21:20:08;;;;;;;6.18;3.75;;;;;;;;;;6217318;23;20320;-88
2022/06/19 21:22:41;;;;;;;4.30;3.90;;;;;;;;;;6217328;23;20023;-87
2022/06/19 21:25:15;;;;;;;6.35;3.75;;;;;;;;;;6217575;23;20001;-87
2022/06/19 21:27:41;;;;;;;5.95;3.60;;;;;;;;;;6217467;23;20001;-87
2022/06/19 21:30:10;;;;;;;6.05;4.18;;;;;;;;;;6217151;23;20000;-88
2022/06/19 21:32:36;;;;;;;3.72;3.33;;;;;;;;;;6217427;23;20313;-87
